sensor_id;sensor_type;location;lat;lon;timestamp;P1;durP1;ratioP1;P2;durP2;ratioP2
50563;SDS011;36514;52.590;21.448;2022-12-26T07:27:57;66.75;;;33.95;;
50563;SDS011;36514;52.590;21.448;2022-12-26T07:37:55;70.15;;;37.76;;
50563;SDS011;36514;52.590;21.448;2022-12-26T07:48:19;55.38;;;34.56;;
50563;SDS011;36514;52.590;21.448;2022-12-26T07:58:12;51.37;;;31.31;;
50563;SDS011;36514;52.590;21.448;2022-12-26T08:08:08;52.09;;;32.15;;
50563;SDS011;36514;52.590;21.448;2022-12-26T08:18:00;55.76;;;34.28;;
50563;SDS011;36514;52.590;21.448;2022-12-26T08:28:01;49.16;;;31.65;;
50563;SDS011;36514;52.590;21.448;2022-12-26T08:38:29;48.72;;;33.43;;
50563;SDS011;36514;52.590;21.448;2022-12-26T08:48:22;56.99;;;35.97;;
50563;SDS011;36514;52.590;21.448;2022-12-26T08:58:19;55.23;;;35.87;;
50563;SDS011;36514;52.590;21.448;2022-12-26T09:08:16;55.51;;;36.85;;
50563;SDS011;36514;52.590;21.448;2022-12-26T09:18:13;64.29;;;43.11;;
50563;SDS011;36514;52.590;21.448;2022-12-26T09:28:05;56.88;;;39.68;;
50563;SDS011;36514;52.590;21.448;2022-12-26T09:38:02;75.89;;;48.71;;
50563;SDS011;36514;52.590;21.448;2022-12-26T09:58:00;80.20;;;50.02;;
50563;SDS011;36514;52.590;21.448;2022-12-26T10:08:12;74.65;;;50.38;;
50563;SDS011;36514;52.590;21.448;2022-12-26T10:48:28;61.74;;;38.12;;
50563;SDS011;36514;52.590;21.448;2022-12-26T10:58:39;63.57;;;39.30;;
50563;SDS011;36514;52.590;21.448;2022-12-26T11:08:48;58.21;;;37.07;;
50563;SDS011;36514;52.590;21.448;2022-12-26T11:18:50;62.58;;;37.35;;
50563;SDS011;36514;52.590;21.448;2022-12-26T11:28:46;56.66;;;41.10;;
50563;SDS011;36514;52.590;21.448;2022-12-26T11:38:53;62.39;;;38.96;;
50563;SDS011;36514;52.590;21.448;2022-12-26T11:48:50;48.80;;;34.01;;
50563;SDS011;36514;52.590;21.448;2022-12-26T11:58:47;53.41;;;35.93;;
50563;SDS011;36514;52.590;21.448;2022-12-26T12:08:50;49.55;;;31.35;;
50563;SDS011;36514;52.590;21.448;2022-12-26T12:18:52;47.88;;;30.77;;
50563;SDS011;36514;52.590;21.448;2022-12-26T13:09:03;46.14;;;30.35;;
50563;SDS011;36514;52.590;21.448;2022-12-26T13:19:00;51.86;;;37.35;;
50563;SDS011;36514;52.590;21.448;2022-12-26T13:29:05;43.69;;;30.09;;
50563;SDS011;36514;52.590;21.448;2022-12-26T13:49:02;34.68;;;25.45;;
50563;SDS011;36514;52.590;21.448;2022-12-26T14:59:29;36.64;;;24.94;;
50563;SDS011;36514;52.590;21.448;2022-12-26T16:09:51;37.64;;;26.44;;
50563;SDS011;36514;52.590;21.448;2022-12-26T16:19:49;38.49;;;27.18;;
50563;SDS011;36514;52.590;21.448;2022-12-26T16:29:47;36.78;;;26.74;;
50563;SDS011;36514;52.590;21.448;2022-12-26T16:39:42;41.58;;;24.75;;
50563;SDS011;36514;52.590;21.448;2022-12-26T16:49:39;37.10;;;25.01;;
50563;SDS011;36514;52.590;21.448;2022-12-26T17:09:43;46.19;;;31.01;;
50563;SDS011;36514;52.590;21.448;2022-12-26T17:19:40;42.56;;;30.00;;
50563;SDS011;36514;52.590;21.448;2022-12-26T17:29:51;34.87;;;27.15;;
50563;SDS011;36514;52.590;21.448;2022-12-26T17:39:51;37.38;;;25.66;;
50563;SDS011;36514;52.590;21.448;2022-12-26T17:49:48;41.17;;;26.62;;
50563;SDS011;36514;52.590;21.448;2022-12-26T17:59:45;34.36;;;25.30;;
50563;SDS011;36514;52.590;21.448;2022-12-26T18:09:41;29.18;;;22.09;;
50563;SDS011;36514;52.590;21.448;2022-12-26T18:19:38;28.96;;;22.57;;
50563;SDS011;36514;52.590;21.448;2022-12-26T18:29:34;27.61;;;21.38;;
50563;SDS011;36514;52.590;21.448;2022-12-26T18:39:31;28.20;;;21.28;;
50563;SDS011;36514;52.590;21.448;2022-12-26T18:49:28;26.59;;;19.39;;
50563;SDS011;36514;52.590;21.448;2022-12-26T18:59:24;24.15;;;19.74;;
50563;SDS011;36514;52.590;21.448;2022-12-26T19:09:21;27.45;;;20.32;;
50563;SDS011;36514;52.590;21.448;2022-12-26T19:19:18;32.99;;;24.40;;
50563;SDS011;36514;52.590;21.448;2022-12-26T19:29:15;29.36;;;23.99;;
50563;SDS011;36514;52.590;21.448;2022-12-26T19:39:13;33.25;;;25.65;;
50563;SDS011;36514;52.590;21.448;2022-12-26T19:49:11;39.20;;;27.91;;
50563;SDS011;36514;52.590;21.448;2022-12-26T19:59:07;38.10;;;27.00;;
50563;SDS011;36514;52.590;21.448;2022-12-26T20:09:05;29.16;;;22.68;;
50563;SDS011;36514;52.590;21.448;2022-12-26T20:19:02;25.95;;;21.47;;
50563;SDS011;36514;52.590;21.448;2022-12-26T20:29:01;25.51;;;18.95;;
50563;SDS011;36514;52.590;21.448;2022-12-26T20:39:00;22.95;;;17.83;;
50563;SDS011;36514;52.590;21.448;2022-12-26T20:49:00;27.95;;;21.38;;
50563;SDS011;36514;52.590;21.448;2022-12-26T20:58:58;27.09;;;20.87;;
50563;SDS011;36514;52.590;21.448;2022-12-26T21:08:53;31.05;;;24.30;;
50563;SDS011;36514;52.590;21.448;2022-12-26T21:18:53;40.58;;;27.26;;
50563;SDS011;36514;52.590;21.448;2022-12-26T21:28:53;36.12;;;26.35;;
50563;SDS011;36514;52.590;21.448;2022-12-26T21:38:55;40.00;;;27.57;;
50563;SDS011;36514;52.590;21.448;2022-12-26T21:48:55;39.35;;;28.33;;
50563;SDS011;36514;52.590;21.448;2022-12-26T21:58:52;37.19;;;28.66;;
50563;SDS011;36514;52.590;21.448;2022-12-26T22:08:48;38.07;;;28.08;;
50563;SDS011;36514;52.590;21.448;2022-12-26T22:18:50;36.79;;;28.35;;
50563;SDS011;36514;52.590;21.448;2022-12-26T22:28:49;40.24;;;28.47;;
50563;SDS011;36514;52.590;21.448;2022-12-26T22:38:53;42.20;;;29.43;;
50563;SDS011;36514;52.590;21.448;2022-12-26T22:49:03;50.11;;;32.86;;
50563;SDS011;36514;52.590;21.448;2022-12-26T22:58:57;48.75;;;33.15;;
50563;SDS011;36514;52.590;21.448;2022-12-26T23:08:55;43.72;;;31.71;;
50563;SDS011;36514;52.590;21.448;2022-12-26T23:18:53;49.37;;;34.14;;
50563;SDS011;36514;52.590;21.448;2022-12-26T23:28:53;55.71;;;37.08;;
50563;SDS011;36514;52.590;21.448;2022-12-26T23:38:50;60.32;;;42.04;;
50563;SDS011;36514;52.590;21.448;2022-12-26T23:48:46;56.35;;;40.74;;
50563;SDS011;36514;52.590;21.448;2022-12-26T23:58:47;52.50;;;36.03;;
